Observation data for Turkey on 11/14/2019      Previous  Date  Next       Current Mesonet Observations  Soil Data  Daily Summary Page  Observations in Plain Language
KTUR 140600Z 31009KT 03/M01 A3009 RMK A01 T00271014  RH  075%=      5-min Rain = 0
KTUR 140605Z 31009KT 03/M01 A3009 RMK A01 T00261014  RH  076%=      5-min Rain = 0
KTUR 140610Z 31009KT 03/M01 A301 RMK A01 T00271014  RH  075%=      5-min Rain = 0
KTUR 140615Z 31008KT 03/M01 A301 RMK A01 T00271013  RH  076%=      5-min Rain = 0
KTUR 140620Z 31009KT 03/M01 A301 RMK A01 T00271013  RH  076%=      5-min Rain = 0
KTUR 140625Z 31009KT 02/M01 A301 RMK A01 T00241014  RH  077%=      5-min Rain = 0
KTUR 140630Z 31009KT 02/M01 A301 RMK A01 T00231014  RH  077%=      5-min Rain = 0
KTUR 140635Z 31009KT 02/M02 A301 RMK A01 T00221015  RH  077%=      5-min Rain = 0
KTUR 140640Z 31009KT 02/M02 A3011 RMK A01 T00211016  RH  078%=      5-min Rain = 0
KTUR 140645Z 31010KT 02/M02 A3011 RMK A01 T00231015  RH  077%=      5-min Rain = 0
KTUR 140650Z 31010KT 03/M02 A3011 RMK A01 T00251016  RH  075%=      5-min Rain = 0
KTUR 140655Z 31009KT 03/M02 A3011 RMK A01 T00251016  RH  075%=      5-min Rain = 0
KTUR 140700Z 31010KT 03/M02 A3011 RMK A01 T00291016  RH  073%=      5-min Rain = 0
KTUR 140705Z 31009KT 03/M02 A3012 RMK A01 T00291017  RH  072%=      5-min Rain = 0
KTUR 140710Z 30010KT 03/M02 A3012 RMK A01 T00271018  RH  073%=      5-min Rain = 0
KTUR 140715Z 30011KT 03/M02 A3012 RMK A01 T00271018  RH  073%=      5-min Rain = 0
KTUR 140720Z 31011KT 03/M02 A3012 RMK A01 T00281018  RH  072%=      5-min Rain = 0
KTUR 140725Z 31011KT 03/M02 A3013 RMK A01 T00281019  RH  072%=      5-min Rain = 0
KTUR 140730Z 31010KT 03/M02 A3013 RMK A01 T00261020  RH  072%=      5-min Rain = 0
KTUR 140735Z 31009KT 02/M02 A3013 RMK A01 T00241020  RH  074%=      5-min Rain = 0
KTUR 140740Z 32008KT 02/M02 A3014 RMK A01 T00191022  RH  075%=      5-min Rain = 0
KTUR 140745Z 32009KT 01/M02 A3014 RMK A01 T00141023  RH  077%=      5-min Rain = 0
KTUR 140750Z 32009KT 01/M02 A3014 RMK A01 T00121023  RH  078%=      5-min Rain = 0
KTUR 140755Z 31010KT 01/M02 A3014 RMK A01 T00131023  RH  078%=      5-min Rain = 0
KTUR 140800Z 31010KT 02/M02 A3015 RMK A01 T00171023  RH  076%=      5-min Rain = 0
KTUR 140805Z 31009KT 02/M02 A3015 RMK A01 T00171023  RH  075%=      5-min Rain = 0
KTUR 140810Z 31009KT 02/M02 A3015 RMK A01 T00171023  RH  075%=      5-min Rain = 0
KTUR 140815Z 31010KT 02/M02 A3015 RMK A01 T00181024  RH  075%=      5-min Rain = 0
KTUR 140820Z 31010KT 02/M03 A3016 RMK A01 T00181025  RH  074%=      5-min Rain = 0
KTUR 140825Z 31010KT 02/M03 A3016 RMK A01 T00201025  RH  073%=      5-min Rain = 0
KTUR 140830Z 31010KT 02/M03 A3016 RMK A01 T00201026  RH  072%=      5-min Rain = 0
KTUR 140835Z 31009KT 02/M03 A3016 RMK A01 T00201026  RH  072%=      5-min Rain = 0
KTUR 140840Z 31009KT 02/M03 A3017 RMK A01 T00201027  RH  072%=      5-min Rain = 0
KTUR 140845Z 31009KT 02/M03 A3017 RMK A01 T00201028  RH  071%=      5-min Rain = 0
KTUR 140850Z 31008KT 02/M03 A3017 RMK A01 T00201028  RH  071%=      5-min Rain = 0
KTUR 140855Z 30009KT 02/M03 A3018 RMK A01 T00191029  RH  071%=      5-min Rain = 0
KTUR 140900Z 30008KT 02/M03 A3018 RMK A01 T00171030  RH  072%=      5-min Rain = 0
KTUR 140905Z 30008KT 02/M03 A3018 RMK A01 T00181030  RH  071%=      5-min Rain = 0
KTUR 140910Z 31008KT 02/M03 A3018 RMK A01 T00191031  RH  070%=      5-min Rain = 0
KTUR 140915Z 30008KT 02/M03 A3018 RMK A01 T00201032  RH  069%=      5-min Rain = 0
KTUR 140920Z 30008KT 02/M03 A3018 RMK A01 T00191032  RH  070%=      5-min Rain = 0
KTUR 140925Z 30008KT 02/M03 A3019 RMK A01 T00201033  RH  069%=      5-min Rain = 0
KTUR 140930Z 31009KT 02/M03 A3019 RMK A01 T00211033  RH  068%=      5-min Rain = 0
KTUR 140935Z 31009KT 03/M03 A3018 RMK A01 T00251033  RH  067%=      5-min Rain = 0
KTUR 140940Z 31009KT 03/M03 A3019 RMK A01 T00271033  RH  065%=      5-min Rain = 0
KTUR 140945Z 31009KT 03/M03 A3019 RMK A01 T00271033  RH  065%=      5-min Rain = 0
KTUR 140950Z 31009KT 03/M03 A302 RMK A01 T00271033  RH  065%=      5-min Rain = 0
KTUR 140955Z 31009KT 03/M03 A302 RMK A01 T00251033  RH  066%=      5-min Rain = 0
KTUR 141000Z 31009KT 02/M03 A302 RMK A01 T00231033  RH  067%=      5-min Rain = 0
KTUR 141005Z 31007KT 02/M03 A302 RMK A01 T00221033  RH  068%=      5-min Rain = 0
KTUR 141010Z 31007KT 02/M03 A302 RMK A01 T00211033  RH  068%=      5-min Rain = 0
KTUR 141015Z 31007KT 02/M03 A302 RMK A01 T00211034  RH  068%=      5-min Rain = 0
KTUR 141020Z 30007KT 02/M03 A302 RMK A01 T00201034  RH  068%=      5-min Rain = 0
KTUR 141025Z 30007KT 02/M04 A3021 RMK A01 T00161035  RH  069%=      5-min Rain = 0
KTUR 141030Z 31007KT 02/M04 A3021 RMK A01 T00161035  RH  070%=      5-min Rain = 0
KTUR 141035Z 31008KT 02/M03 A3021 RMK A01 T00211034  RH  068%=      5-min Rain = 0
KTUR 141040Z 32008KT 03/M03 A3021 RMK A01 T00251033  RH  066%=      5-min Rain = 0
KTUR 141045Z 33007KT 02/M03 A3021 RMK A01 T00211034  RH  068%=      5-min Rain = 0
KTUR 141050Z 34007KT 02/M03 A3021 RMK A01 T00181033  RH  070%=      5-min Rain = 0
KTUR 141055Z 34008KT 02/M03 A3022 RMK A01 T00181030  RH  071%=      5-min Rain = 0
KTUR 141100Z 34009KT 03/M03 A3022 RMK A01 T00251026  RH  070%=      5-min Rain = 0
KTUR 141105Z 35009KT 03/M03 A3022 RMK A01 T00291025  RH  068%=      5-min Rain = 0
KTUR 141110Z 34010KT 03/M02 A3022 RMK A01 T00311024  RH  068%=      5-min Rain = 0
KTUR 141115Z 34010KT 03/M02 A3022 RMK A01 T00311023  RH  068%=      5-min Rain = 0
KTUR 141120Z 34010KT 03/M02 A3023 RMK A01 T00311022  RH  069%=      5-min Rain = 0
KTUR 141125Z 35010KT 03/M02 A3023 RMK A01 T00321021  RH  069%=      5-min Rain = 0
KTUR 141130Z 35010KT 03/M02 A3023 RMK A01 T00331021  RH  069%=      5-min Rain = 0
KTUR 141135Z 35010KT 03/M02 A3024 RMK A01 T00341020  RH  068%=      5-min Rain = 0
KTUR 141140Z 34010KT 03/M02 A3024 RMK A01 T00341020  RH  068%=      5-min Rain = 0
KTUR 141145Z 35009KT 03/M02 A3024 RMK A01 T00321021  RH  069%=      5-min Rain = 0
KTUR 141150Z 35008KT 03/M02 A3024 RMK A01 T00301021  RH  070%=      5-min Rain = 0
KTUR 141155Z 35009KT 03/M02 A3024 RMK A01 T00291021  RH  071%=      5-min Rain = 0
KTUR 141200Z 35009KT 03/M02 A3025 RMK A01 T00281021  RH  071%=      5-min Rain = 0
KTUR 141205Z 35008KT 03/M02 A3025 RMK A01 T00271021  RH  071%=      5-min Rain = 0
KTUR 141210Z 35008KT 03/M02 A3025 RMK A01 T00261022  RH  072%=      5-min Rain = 0
KTUR 141215Z 35008KT 03/M02 A3026 RMK A01 T00251022  RH  072%=      5-min Rain = 0
KTUR 141220Z 34008KT 02/M02 A3026 RMK A01 T00241022  RH  073%=      5-min Rain = 0
KTUR 141225Z 34009KT 02/M02 A3026 RMK A01 T00231022  RH  073%=      5-min Rain = 0
KTUR 141230Z 34008KT 02/M02 A3027 RMK A01 T00231022  RH  073%=      5-min Rain = 0
KTUR 141235Z 34008KT 02/M02 A3027 RMK A01 T00221022  RH  074%=      5-min Rain = 0
KTUR 141240Z 33009KT 02/M02 A3027 RMK A01 T00211022  RH  074%=      5-min Rain = 0
KTUR 141245Z 33009KT 02/M02 A3028 RMK A01 T00211023  RH  074%=      5-min Rain = 0
KTUR 141250Z 33009KT 02/M02 A3028 RMK A01 T00201023  RH  074%=      5-min Rain = 0
KTUR 141255Z 33009KT 02/M02 A3029 RMK A01 T00181024  RH  074%=      5-min Rain = 0
KTUR 141300Z 33008KT 02/M02 A3029 RMK A01 T00171024  RH  075%=      5-min Rain = 0
KTUR 141305Z 33008KT 02/M03 A3029 RMK A01 T00181025  RH  074%=      5-min Rain = 0
KTUR 141310Z 33007KT 02/M03 A303 RMK A01 T00161025  RH  075%=      5-min Rain = 0
KTUR 141315Z 33008KT 02/M03 A303 RMK A01 T00191025  RH  074%=      5-min Rain = 0
KTUR 141320Z 33007KT 02/M02 A303 RMK A01 T00211024  RH  073%=      5-min Rain = 0
KTUR 141325Z 33007KT 02/M02 A3031 RMK A01 T00201024  RH  073%=      5-min Rain = 0
KTUR 141330Z 33007KT 02/M02 A3031 RMK A01 T00201024  RH  073%=      5-min Rain = 0
KTUR 141335Z 32006KT 02/M02 A3031 RMK A01 T00201024  RH  074%=      5-min Rain = 0
KTUR 141340Z 32006KT 02/M02 A3032 RMK A01 T00211023  RH  074%=      5-min Rain = 0
KTUR 141345Z 31004KT 02/M02 A3032 RMK A01 T00211023  RH  074%=      5-min Rain = 0
KTUR 141350Z 31004KT 02/M02 A3033 RMK A01 T00191024  RH  074%=      5-min Rain = 0
KTUR 141355Z 31005KT 02/M02 A3033 RMK A01 T00211022  RH  074%=      5-min Rain = 0
KTUR 141400Z 32006KT 02/M02 A3033 RMK A01 T00241020  RH  073%=      5-min Rain = 0
KTUR 141405Z 31005KT 03/M02 A3033 RMK A01 T00261019  RH  073%=      5-min Rain = 0
KTUR 141410Z 31005KT 03/M02 A3034 RMK A01 T00271018  RH  073%=      5-min Rain = 0
KTUR 141415Z 31004KT 03/M02 A3034 RMK A01 T00291017  RH  072%=      5-min Rain = 0
KTUR 141420Z 31004KT 03/M02 A3034 RMK A01 T00331016  RH  071%=      5-min Rain = 0
KTUR 141425Z 31004KT 04/M01 A3035 RMK A01 T00361013  RH  071%=      5-min Rain = 0
KTUR 141430Z 32003KT 04/M01 A3035 RMK A01 T00401011  RH  070%=      5-min Rain = 0
KTUR 141435Z 33004KT 04/M01 A3036 RMK A01 T00431011  RH  069%=      5-min Rain = 0
KTUR 141440Z 34006KT 05/M01 A3036 RMK A01 T00481009  RH  067%=      5-min Rain = 0
KTUR 141445Z 36009KT 05/M01 A3036 RMK A01 T00541008  RH  065%=      5-min Rain = 0
KTUR 141450Z 36010KT 06/M01 A3037 RMK A01 T00551009  RH  064%=      5-min Rain = 0
KTUR 141455Z 36011KT 06/M01 A3037 RMK A01 T00561009  RH  064%=      5-min Rain = 0
KTUR 141500Z 00011KT 06/M01 A3037 RMK A01 T00571008  RH  063%=      5-min Rain = 0
KTUR 141505Z 36011KT 06/M01 A3037 RMK A01 T00591008  RH  063%=      5-min Rain = 0
KTUR 141510Z 00012KT 06/M01 A3037 RMK A01 T00601008  RH  062%=      5-min Rain = 0
KTUR 141515Z 35011KT 06/M01 A3037 RMK A01 T00611008  RH  062%=      5-min Rain = 0
KTUR 141520Z 00010KT 06/M01 A3038 RMK A01 T00621008  RH  062%=      5-min Rain = 0
KTUR 141525Z 01008KT 06/M01 A3038 RMK A01 T00631008  RH  061%=      5-min Rain = 0
KTUR 141530Z 00011KT 07/M01 A3038 RMK A01 T00661007  RH  060%=      5-min Rain = 0
KTUR 141535Z 00011KT 07/M01 A3038 RMK A01 T00671007  RH  060%=      5-min Rain = 0
KTUR 141540Z 01010KT 07/M01 A3039 RMK A01 T00691007  RH  059%=      5-min Rain = 0
KTUR 141545Z 00010KT 07/M01 A3039 RMK A01 T00711006  RH  059%=      5-min Rain = 0
KTUR 141550Z 01009KT 07/M01 A3039 RMK A01 T00731006  RH  058%=      5-min Rain = 0
KTUR 141555Z 02012KT 08/M01 A3039 RMK A01 T00751005  RH  057%=      5-min Rain = 0
KTUR 141600Z 02013KT 07/M01 A3039 RMK A01 T00741007  RH  057%=      5-min Rain = 0
KTUR 141605Z 01011KT 08/M01 A3039 RMK A01 T00771007  RH  056%=      5-min Rain = 0
KTUR 141610Z 01012G17KT 08/M01 A3039 RMK A01 T00781009  RH  055%=      5-min Rain = 0
KTUR 141615Z 02011KT 08/M01 A304 RMK A01 T00791008  RH  055%=      5-min Rain = 0
KTUR 141620Z 02012G18KT 08/M01 A304 RMK A01 T00811007  RH  054%=      5-min Rain = 0
KTUR 141625Z 02012KT 08/M01 A304 RMK A01 T00811008  RH  054%=      5-min Rain = 0
KTUR 141630Z 02011KT 09/M01 A304 RMK A01 T00851008  RH  053%=      5-min Rain = 0
KTUR 141635Z 01013G18KT 08/M01 A304 RMK A01 T00841010  RH  052%=      5-min Rain = 0
KTUR 141640Z 02011KT 08/M01 A304 RMK A01 T00841010  RH  052%=      5-min Rain = 0
KTUR 141645Z 01012G17KT 09/M01 A304 RMK A01 T00871010  RH  051%=      5-min Rain = 0
KTUR 141650Z 02011KT 09/M01 A304 RMK A01 T00891009  RH  051%=      5-min Rain = 0
KTUR 141655Z 01014KT 09/M01 A3041 RMK A01 T00901010  RH  050%=      5-min Rain = 0
KTUR 141700Z 01013KT 09/M01 A3041 RMK A01 T00911010  RH  050%=      5-min Rain = 0
KTUR 141705Z 01013G18KT 09/M01 A3041 RMK A01 T00911011  RH  050%=      5-min Rain = 0
KTUR 141710Z 01011G17KT 09/M01 A3041 RMK A01 T00941010  RH  049%=      5-min Rain = 0
KTUR 141715Z 03012G17KT 10/M01 A3041 RMK A01 T00971011  RH  047%=      5-min Rain = 0
KTUR 141720Z 03010G15KT 09/M01 A304 RMK A01 T00941011  RH  048%=      5-min Rain = 0
KTUR 141725Z 01011KT 10/M01 A304 RMK A01 T00981010  RH  047%=      5-min Rain = 0
KTUR 141730Z 01011G16KT 10/M01 A304 RMK A01 T00991010  RH  047%=      5-min Rain = 0
KTUR 141735Z 02010G15KT 10/M01 A304 RMK A01 T01011010  RH  047%=      5-min Rain = 0
KTUR 141740Z 01009G14KT 10/M01 A304 RMK A01 T01001011  RH  047%=      5-min Rain = 0
KTUR 141745Z 01011KT 10/M01 A304 RMK A01 T01011011  RH  046%=      5-min Rain = 0
KTUR 141750Z 01009KT 10/M01 A304 RMK A01 T01021011  RH  046%=      5-min Rain = 0
KTUR 141755Z 01009KT 10/M01 A304 RMK A01 T01041011  RH  045%=      5-min Rain = 0
KTUR 141800Z 01008G13KT 11/M01 A3039 RMK A01 T01061011  RH  044%=      5-min Rain = 0
KTUR 141805Z 03011KT 11/M01 A3039 RMK A01 T01071011  RH  045%=      5-min Rain = 0
KTUR 141810Z 02010G19KT 11/M01 A3039 RMK A01 T01091011  RH  044%=      5-min Rain = 0
KTUR 141815Z 03012KT 11/M01 A3039 RMK A01 T01091011  RH  044%=      5-min Rain = 0
KTUR 141820Z 02013KT 11/M01 A3038 RMK A01 T01081012  RH  044%=      5-min Rain = 0
KTUR 141825Z 01009KT 11/M01 A3038 RMK A01 T01091012  RH  044%=      5-min Rain = 0
KTUR 141830Z 02010KT 11/M01 A3038 RMK A01 T01121011  RH  043%=      5-min Rain = 0
KTUR 141835Z 01009G17KT 11/M01 A3038 RMK A01 T01131012  RH  042%=      5-min Rain = 0
KTUR 141840Z 00011G16KT 11/M01 A3038 RMK A01 T01141011  RH  042%=      5-min Rain = 0
KTUR 141845Z 00011G17KT 12/M01 A3038 RMK A01 T01161011  RH  042%=      5-min Rain = 0
KTUR 141850Z 00011KT 12/M01 A3038 RMK A01 T01151011  RH  042%=      5-min Rain = 0
KTUR 141855Z 01011KT 12/M01 A3038 RMK A01 T01211010  RH  041%=      5-min Rain = 0
KTUR 141900Z 02009KT 12/M01 A3037 RMK A01 T01161011  RH  042%=      5-min Rain = 0
KTUR 141905Z 02010G15KT 12/M01 A3037 RMK A01 T01171011  RH  041%=      5-min Rain = 0
KTUR 141910Z 04007KT 12/M01 A3037 RMK A01 T01181010  RH  042%=      5-min Rain = 0
KTUR 141915Z 03008G14KT 12/M01 A3037 RMK A01 T01191010  RH  041%=      5-min Rain = 0
KTUR 141920Z 01008KT 12/M01 A3037 RMK A01 T01191011  RH  041%=      5-min Rain = 0
KTUR 141925Z 02007KT 12/M01 A3037 RMK A01 T01191011  RH  041%=      5-min Rain = 0
KTUR 141930Z 03011KT 12/M01 A3036 RMK A01 T01201011  RH  041%=      5-min Rain = 0
KTUR 141935Z 03008G13KT 12/M01 A3036 RMK A01 T01211010  RH  041%=      5-min Rain = 0
KTUR 141940Z 01006G11KT 12/M01 A3036 RMK A01 T01221011  RH  040%=      5-min Rain = 0
KTUR 141945Z 02009G14KT 12/M01 A3036 RMK A01 T01241010  RH  040%=      5-min Rain = 0
KTUR 141950Z 36006KT 12/M01 A3036 RMK A01 T01231011  RH  040%=      5-min Rain = 0
KTUR 141955Z 03008G14KT 12/M01 A3035 RMK A01 T01241010  RH  040%=      5-min Rain = 0
KTUR 142000Z 36008KT 13/M01 A3035 RMK A01 T01261011  RH  039%=      5-min Rain = 0
KTUR 142005Z 04009KT 13/M01 A3035 RMK A01 T01271010  RH  039%=      5-min Rain = 0
KTUR 142010Z 05009KT 13/M01 A3035 RMK A01 T01261010  RH  039%=      5-min Rain = 0
KTUR 142015Z 04005KT 12/M01 A3035 RMK A01 T01241011  RH  040%=      5-min Rain = 0
KTUR 142020Z 02008G15KT 13/M01 A3035 RMK A01 T01281009  RH  039%=      5-min Rain = 0
KTUR 142025Z 03010KT 13/M01 A3035 RMK A01 T01271010  RH  039%=      5-min Rain = 0
KTUR 142030Z 05007KT 12/M01 A3035 RMK A01 T01221011  RH  040%=      5-min Rain = 0
KTUR 142035Z 05005KT 13/M01 A3035 RMK A01 T01271010  RH  039%=      5-min Rain = 0
KTUR 142040Z 02008G13KT 13/M01 A3035 RMK A01 T01291010  RH  039%=      5-min Rain = 0
KTUR 142045Z 01008KT 13/M01 A3035 RMK A01 T01281010  RH  039%=      5-min Rain = 0
KTUR 142050Z 01004G11KT 13/M01 A3035 RMK A01 T01271010  RH  039%=      5-min Rain = 0
KTUR 142055Z 04006G11KT 13/M01 A3035 RMK A01 T01271010  RH  039%=      5-min Rain = 0
KTUR 142100Z 02008G15KT 13/M01 A3035 RMK A01 T01271010  RH  039%=      5-min Rain = 0
KTUR 142105Z 05003G10KT 13/M01 A3035 RMK A01 T01271009  RH  039%=      5-min Rain = 0
KTUR 142110Z 07007KT 13/M01 A3035 RMK A01 T01291008  RH  039%=      5-min Rain = 0
KTUR 142115Z 04007KT 13/M01 A3035 RMK A01 T01331008  RH  038%=      5-min Rain = 0
KTUR 142120Z 07005KT 13/M01 A3035 RMK A01 T01291009  RH  039%=      5-min Rain = 0
KTUR 142125Z 06005KT 13/M01 A3035 RMK A01 T01301008  RH  039%=      5-min Rain = 0
KTUR 142130Z 06005KT 13/M01 A3035 RMK A01 T01301009  RH  039%=      5-min Rain = 0
KTUR 142135Z 03006KT 13/M01 A3035 RMK A01 T01301008  RH  039%=      5-min Rain = 0
KTUR 142140Z 03006KT 13/M01 A3035 RMK A01 T01311008  RH  039%=      5-min Rain = 0
KTUR 142145Z 06005KT 13/M01 A3035 RMK A01 T01291009  RH  039%=      5-min Rain = 0
KTUR 142150Z 07005KT 13/M01 A3035 RMK A01 T01281008  RH  039%=      5-min Rain = 0
KTUR 142155Z 04008KT 13/M01 A3035 RMK A01 T01281008  RH  039%=      5-min Rain = 0
KTUR 142200Z 06003KT 13/M01 A3035 RMK A01 T01281009  RH  039%=      5-min Rain = 0
KTUR 142205Z 03004G10KT 13/M01 A3035 RMK A01 T01291008  RH  039%=      5-min Rain = 0
KTUR 142210Z 04006KT 13/M01 A3035 RMK A01 T01281008  RH  039%=      5-min Rain = 0
KTUR 142215Z 08006KT 13/M01 A3035 RMK A01 T01271008  RH  040%=      5-min Rain = 0
KTUR 142220Z 07006KT 13/M01 A3034 RMK A01 T01271009  RH  040%=      5-min Rain = 0
KTUR 142225Z 09004KT 13/M01 A3034 RMK A01 T01261009  RH  040%=      5-min Rain = 0
KTUR 142230Z 06005KT 13/M01 A3034 RMK A01 T01271008  RH  040%=      5-min Rain = 0
KTUR 142235Z 06006KT 13/M01 A3035 RMK A01 T01251009  RH  040%=      5-min Rain = 0
KTUR 142240Z 06006KT 12/M01 A3035 RMK A01 T01241008  RH  041%=      5-min Rain = 0
KTUR 142245Z 09006KT 12/M01 A3035 RMK A01 T01221008  RH  041%=      5-min Rain = 0
KTUR 142250Z 10006KT 12/M01 A3035 RMK A01 T01211008  RH  041%=      5-min Rain = 0
KTUR 142255Z 08006KT 12/M01 A3035 RMK A01 T01211007  RH  042%=      5-min Rain = 0
KTUR 142300Z 06005KT 12/M01 A3035 RMK A01 T01191007  RH  042%=      5-min Rain = 0
KTUR 142305Z 06006KT 12/M01 A3035 RMK A01 T01161007  RH  043%=      5-min Rain = 0
KTUR 142310Z 05004KT 11/M01 A3035 RMK A01 T01141007  RH  044%=      5-min Rain = 0
KTUR 142315Z 06005KT 11/M01 A3035 RMK A01 T01111008  RH  044%=      5-min Rain = 0
KTUR 142320Z 06004KT 11/M01 A3035 RMK A01 T01071008  RH  045%=      5-min Rain = 0
KTUR 142325Z 07004KT 11/M01 A3035 RMK A01 T01051009  RH  046%=      5-min Rain = 0
KTUR 142330Z 07005KT 10/M01 A3036 RMK A01 T01021009  RH  047%=      5-min Rain = 0
KTUR 142335Z 08006KT 10/M01 A3036 RMK A01 T00991010  RH  047%=      5-min Rain = 0
KTUR 142340Z 08006KT 10/M01 A3036 RMK A01 T00961009  RH  048%=      5-min Rain = 0
KTUR 142345Z 08006KT 09/M01 A3036 RMK A01 T00921010  RH  049%=      5-min Rain = 0
KTUR 142350Z 08005KT 09/M01 A3036 RMK A01 T00911011  RH  049%=      5-min Rain = 0
KTUR 142355Z 09005KT 09/M01 A3036 RMK A01 T00921011  RH  049%=      5-min Rain = 0
KTUR 150000Z 08006KT 09/M01 A3036 RMK A01 T00921011  RH  049%=      5-min Rain = 0
KTUR 150005Z 09005KT 09/M01 A3037 RMK A01 T00901011  RH  050%=      5-min Rain = 0
KTUR 150010Z 09006KT 09/M01 A3037 RMK A01 T00911012  RH  049%=      5-min Rain = 0
KTUR 150015Z 09006KT 09/M01 A3037 RMK A01 T00901012  RH  049%=      5-min Rain = 0
KTUR 150020Z 10005KT 09/M01 A3037 RMK A01 T00881012  RH  050%=      5-min Rain = 0
KTUR 150025Z 11005KT 08/M01 A3037 RMK A01 T00841013  RH  051%=      5-min Rain = 0
KTUR 150030Z 11005KT 08/M01 A3037 RMK A01 T00841013  RH  051%=      5-min Rain = 0
KTUR 150035Z 12004KT 08/M01 A3038 RMK A01 T00841014  RH  051%=      5-min Rain = 0
KTUR 150040Z 13003KT 08/M01 A3038 RMK A01 T00801014  RH  052%=      5-min Rain = 0
KTUR 150045Z 15004KT 08/M01 A3038 RMK A01 T00781012  RH  053%=      5-min Rain = 0
KTUR 150050Z 15004KT 08/M01 A3038 RMK A01 T00771013  RH  054%=      5-min Rain = 0
KTUR 150055Z 15004KT 08/M01 A3038 RMK A01 T00781014  RH  053%=      5-min Rain = 0
KTUR 150100Z 15004KT 08/M01 A3038 RMK A01 T00781014  RH  053%=      5-min Rain = 0
KTUR 150105Z 14004KT 08/M01 A3038 RMK A01 T00781014  RH  053%=      5-min Rain = 0
KTUR 150110Z 13004KT 08/M02 A3039 RMK A01 T00791015  RH  052%=      5-min Rain = 0
KTUR 150115Z 13004KT 08/M02 A3039 RMK A01 T00781015  RH  052%=      5-min Rain = 0
KTUR 150120Z 14004KT 08/M02 A3039 RMK A01 T00771015  RH  053%=      5-min Rain = 0
KTUR 150125Z 15004KT 08/M02 A3039 RMK A01 T00761015  RH  053%=      5-min Rain = 0
KTUR 150130Z 15004KT 08/M02 A3039 RMK A01 T00751015  RH  053%=      5-min Rain = 0
KTUR 150135Z 15004KT 07/M02 A3039 RMK A01 T00731016  RH  054%=      5-min Rain = 0
KTUR 150140Z 15005KT 07/M02 A3039 RMK A01 T00721016  RH  054%=      5-min Rain = 0
KTUR 150145Z 15005KT 07/M02 A3039 RMK A01 T00721016  RH  054%=      5-min Rain = 0
KTUR 150150Z 16005KT 07/M02 A304 RMK A01 T00711016  RH  055%=      5-min Rain = 0
KTUR 150155Z 18004KT 07/M02 A3039 RMK A01 T00651016  RH  057%=      5-min Rain = 0
KTUR 150200Z 20005KT 06/M02 A304 RMK A01 T00561016  RH  060%=      5-min Rain = 0
KTUR 150205Z 21006KT 05/M02 A304 RMK A01 T00501015  RH  063%=      5-min Rain = 0
KTUR 150210Z 22006KT 05/M01 A304 RMK A01 T00481014  RH  065%=      5-min Rain = 0
KTUR 150215Z 22007KT 05/M01 A304 RMK A01 T00471014  RH  065%=      5-min Rain = 0
KTUR 150220Z 22007KT 05/M02 A304 RMK A01 T00481015  RH  064%=      5-min Rain = 0
KTUR 150225Z 22007KT 05/M02 A304 RMK A01 T00461016  RH  065%=      5-min Rain = 0
KTUR 150230Z 22006KT 05/M02 A304 RMK A01 T00461016  RH  065%=      5-min Rain = 0
KTUR 150235Z 21006KT 05/M02 A304 RMK A01 T00471016  RH  064%=      5-min Rain = 0
KTUR 150240Z 21006KT 05/M02 A304 RMK A01 T00471016  RH  065%=      5-min Rain = 0
KTUR 150245Z 21006KT 05/M02 A304 RMK A01 T00501015  RH  064%=      5-min Rain = 0
KTUR 150250Z 21006KT 05/M02 A304 RMK A01 T00481015  RH  064%=      5-min Rain = 0
KTUR 150255Z 21006KT 05/M02 A3041 RMK A01 T00461015  RH  066%=      5-min Rain = 0
KTUR 150300Z 21006KT 05/M02 A3041 RMK A01 T00451015  RH  066%=      5-min Rain = 0
KTUR 150305Z 21006KT 04/M02 A3041 RMK A01 T00441015  RH  066%=      5-min Rain = 0
KTUR 150310Z 22007KT 04/M02 A3041 RMK A01 T00441015  RH  066%=      5-min Rain = 0
KTUR 150315Z 22008KT 04/M02 A3041 RMK A01 T00431015  RH  066%=      5-min Rain = 0
KTUR 150320Z 22007KT 04/M02 A3041 RMK A01 T00431015  RH  066%=      5-min Rain = 0
KTUR 150325Z 22007KT 04/M02 A3041 RMK A01 T00421016  RH  067%=      5-min Rain = 0
KTUR 150330Z 22007KT 04/M02 A3042 RMK A01 T00421015  RH  067%=      5-min Rain = 0
KTUR 150335Z 22007KT 04/M02 A3041 RMK A01 T00421015  RH  067%=      5-min Rain = 0
KTUR 150340Z 22007KT 04/M02 A3041 RMK A01 T00411016  RH  067%=      5-min Rain = 0
KTUR 150345Z 22007KT 04/M02 A3041 RMK A01 T00401016  RH  068%=      5-min Rain = 0
KTUR 150350Z 21007KT 04/M02 A3041 RMK A01 T00391016  RH  068%=      5-min Rain = 0
KTUR 150355Z 21007KT 04/M02 A3041 RMK A01 T00401017  RH  067%=      5-min Rain = 0
KTUR 150400Z 21007KT 04/M02 A3041 RMK A01 T00381017  RH  068%=      5-min Rain = 0
KTUR 150405Z 21007KT 04/M02 A3041 RMK A01 T00371017  RH  068%=      5-min Rain = 0
KTUR 150410Z 20007KT 04/M02 A3041 RMK A01 T00381017  RH  068%=      5-min Rain = 0
KTUR 150415Z 21007KT 04/M02 A3041 RMK A01 T00371017  RH  068%=      5-min Rain = 0
KTUR 150420Z 21007KT 04/M02 A3041 RMK A01 T00371016  RH  069%=      5-min Rain = 0
KTUR 150425Z 21007KT 04/M02 A3041 RMK A01 T00361016  RH  070%=      5-min Rain = 0
KTUR 150430Z 22007KT 04/M02 A3041 RMK A01 T00371016  RH  069%=      5-min Rain = 0
KTUR 150435Z 22008KT 04/M02 A3041 RMK A01 T00351017  RH  070%=      5-min Rain = 0
KTUR 150440Z 22008KT 03/M02 A3041 RMK A01 T00341017  RH  070%=      5-min Rain = 0
KTUR 150445Z 22008KT 04/M02 A3041 RMK A01 T00351017  RH  069%=      5-min Rain = 0
KTUR 150450Z 22008KT 03/M02 A3041 RMK A01 T00321018  RH  070%=      5-min Rain = 0
KTUR 150455Z 22008KT 03/M02 A3041 RMK A01 T00321018  RH  070%=      5-min Rain = 0
KTUR 150500Z 22008KT 03/M02 A3041 RMK A01 T00311018  RH  071%=      5-min Rain = 0
KTUR 150505Z 22008KT 03/M02 A3041 RMK A01 T00301018  RH  072%=      5-min Rain = 0
KTUR 150510Z 22008KT 03/M02 A3041 RMK A01 T00311018  RH  071%=      5-min Rain = 0
KTUR 150515Z 22008KT 03/M02 A3041 RMK A01 T00311017  RH  071%=      5-min Rain = 0
KTUR 150520Z 22008KT 03/M02 A3041 RMK A01 T00301018  RH  072%=      5-min Rain = 0
KTUR 150525Z 22008KT 03/M02 A3041 RMK A01 T00291018  RH  072%=      5-min Rain = 0
KTUR 150530Z 22009KT 03/M02 A3041 RMK A01 T00281018  RH  073%=      5-min Rain = 0
KTUR 150535Z 23009KT 03/M02 A3042 RMK A01 T00291017  RH  072%=      5-min Rain = 0
KTUR 150540Z 23009KT 03/M02 A3042 RMK A01 T00331016  RH  071%=      5-min Rain = 0
KTUR 150545Z 23009KT 04/M02 A3042 RMK A01 T00351016  RH  070%=      5-min Rain = 0
KTUR 150550Z 23009KT 03/M02 A3042 RMK A01 T00331017  RH  071%=      5-min Rain = 0
KTUR 150555Z 23009KT 03/M02 A3042 RMK A01 T00331017  RH  071%=      5-min Rain = 0

Page generated in 0.0091 seconds.